sensor_id;sensor_type;location;lat;lon;timestamp;temperature;humidity
29917;DHT22;16786;49.466;11.068;2023-04-24T00:00:47;11.50;99.90
29917;DHT22;16786;49.466;11.068;2023-04-24T00:03:15;11.50;99.90
29917;DHT22;16786;49.466;11.068;2023-04-24T00:05:43;11.50;99.90
29917;DHT22;16786;49.466;11.068;2023-04-24T00:08:11;11.50;99.90
29917;DHT22;16786;49.466;11.068;2023-04-24T00:10:40;11.50;99.90
29917;DHT22;16786;49.466;11.068;2023-04-24T00:13:08;11.40;99.90
29917;DHT22;16786;49.466;11.068;2023-04-24T00:15:36;11.40;99.90
29917;DHT22;16786;49.466;11.068;2023-04-24T00:18:04;11.40;99.90
29917;DHT22;16786;49.466;11.068;2023-04-24T00:20:32;11.40;99.90
29917;DHT22;16786;49.466;11.068;2023-04-24T00:23:00;11.40;99.90
29917;DHT22;16786;49.466;11.068;2023-04-24T00:25:27;11.40;99.90
29917;DHT22;16786;49.466;11.068;2023-04-24T00:27:55;11.30;99.90
29917;DHT22;16786;49.466;11.068;2023-04-24T00:30:22;11.30;99.90
29917;DHT22;16786;49.466;11.068;2023-04-24T00:32:49;11.20;99.90
29917;DHT22;16786;49.466;11.068;2023-04-24T00:35:19;11.20;99.90
29917;DHT22;16786;49.466;11.068;2023-04-24T00:37:47;11.20;99.90
29917;DHT22;16786;49.466;11.068;2023-04-24T00:40:15;11.20;99.90
29917;DHT22;16786;49.466;11.068;2023-04-24T00:42:43;11.20;99.90
29917;DHT22;16786;49.466;11.068;2023-04-24T00:45:12;11.10;99.90
29917;DHT22;16786;49.466;11.068;2023-04-24T00:47:41;11.10;99.90
29917;DHT22;16786;49.466;11.068;2023-04-24T00:50:09;11.10;99.90
29917;DHT22;16786;49.466;11.068;2023-04-24T00:52:38;11.10;99.90
29917;DHT22;16786;49.466;11.068;2023-04-24T00:55:08;11.10;99.90
29917;DHT22;16786;49.466;11.068;2023-04-24T00:57:36;11.10;99.90
29917;DHT22;16786;49.466;11.068;2023-04-24T01:00:06;11.10;99.90
29917;DHT22;16786;49.466;11.068;2023-04-24T01:02:44;11.00;99.90
29917;DHT22;16786;49.466;11.068;2023-04-24T01:05:14;11.00;99.90
29917;DHT22;16786;49.466;11.068;2023-04-24T01:07:44;11.00;99.90
29917;DHT22;16786;49.466;11.068;2023-04-24T01:10:14;11.00;99.90
29917;DHT22;16786;49.466;11.068;2023-04-24T01:12:41;10.90;99.90
29917;DHT22;16786;49.466;11.068;2023-04-24T01:15:12;11.00;99.90
29917;DHT22;16786;49.466;11.068;2023-04-24T01:17:41;11.00;99.90
29917;DHT22;16786;49.466;11.068;2023-04-24T01:20:11;11.00;99.90
29917;DHT22;16786;49.466;11.068;2023-04-24T01:22:40;10.90;99.90
29917;DHT22;16786;49.466;11.068;2023-04-24T01:25:09;10.90;99.90
29917;DHT22;16786;49.466;11.068;2023-04-24T01:27:37;10.90;99.90
29917;DHT22;16786;49.466;11.068;2023-04-24T01:30:07;10.90;99.90
29917;DHT22;16786;49.466;11.068;2023-04-24T01:32:36;10.90;99.90
29917;DHT22;16786;49.466;11.068;2023-04-24T01:35:06;10.90;99.90
29917;DHT22;16786;49.466;11.068;2023-04-24T01:37:33;10.90;99.90
29917;DHT22;16786;49.466;11.068;2023-04-24T01:40:06;11.00;99.90
29917;DHT22;16786;49.466;11.068;2023-04-24T01:42:34;11.00;99.90
29917;DHT22;16786;49.466;11.068;2023-04-24T01:45:03;11.00;99.90
29917;DHT22;16786;49.466;11.068;2023-04-24T01:47:32;11.00;99.90
29917;DHT22;16786;49.466;11.068;2023-04-24T01:49:59;11.00;99.90
29917;DHT22;16786;49.466;11.068;2023-04-24T01:52:27;11.00;99.90
29917;DHT22;16786;49.466;11.068;2023-04-24T01:55:00;11.00;99.90
29917;DHT22;16786;49.466;11.068;2023-04-24T01:57:28;11.00;99.90
29917;DHT22;16786;49.466;11.068;2023-04-24T01:59:57;11.00;99.90
29917;DHT22;16786;49.466;11.068;2023-04-24T02:02:25;11.00;99.90
29917;DHT22;16786;49.466;11.068;2023-04-24T02:04:57;11.00;99.90
29917;DHT22;16786;49.466;11.068;2023-04-24T02:07:25;11.00;99.90
29917;DHT22;16786;49.466;11.068;2023-04-24T02:09:53;11.00;99.90
29917;DHT22;16786;49.466;11.068;2023-04-24T02:12:20;11.00;99.90
29917;DHT22;16786;49.466;11.068;2023-04-24T02:14:51;11.00;99.90
29917;DHT22;16786;49.466;11.068;2023-04-24T02:17:18;11.00;99.90
29917;DHT22;16786;49.466;11.068;2023-04-24T02:19:46;11.00;99.90
29917;DHT22;16786;49.466;11.068;2023-04-24T02:22:13;11.00;99.90
29917;DHT22;16786;49.466;11.068;2023-04-24T02:24:40;10.90;99.90
29917;DHT22;16786;49.466;11.068;2023-04-24T02:27:08;10.90;99.90
29917;DHT22;16786;49.466;11.068;2023-04-24T02:29:36;10.90;99.90
29917;DHT22;16786;49.466;11.068;2023-04-24T02:32:04;10.90;99.90
29917;DHT22;16786;49.466;11.068;2023-04-24T02:34:33;10.90;99.90
29917;DHT22;16786;49.466;11.068;2023-04-24T02:37:00;10.90;99.90
29917;DHT22;16786;49.466;11.068;2023-04-24T02:39:28;10.90;99.90
29917;DHT22;16786;49.466;11.068;2023-04-24T02:41:55;10.80;99.90
29917;DHT22;16786;49.466;11.068;2023-04-24T02:44:22;10.90;99.90
29917;DHT22;16786;49.466;11.068;2023-04-24T02:46:50;10.90;99.90
29917;DHT22;16786;49.466;11.068;2023-04-24T02:49:18;10.90;99.90
29917;DHT22;16786;49.466;11.068;2023-04-24T02:51:45;10.90;99.90
29917;DHT22;16786;49.466;11.068;2023-04-24T02:54:12;10.90;99.90
29917;DHT22;16786;49.466;11.068;2023-04-24T02:56:40;10.90;99.90
29917;DHT22;16786;49.466;11.068;2023-04-24T02:59:08;10.90;99.90
29917;DHT22;16786;49.466;11.068;2023-04-24T03:01:36;10.80;99.90
29917;DHT22;16786;49.466;11.068;2023-04-24T03:04:04;10.80;99.90
29917;DHT22;16786;49.466;11.068;2023-04-24T03:06:32;10.80;99.90
29917;DHT22;16786;49.466;11.068;2023-04-24T03:08:59;10.80;99.90
29917;DHT22;16786;49.466;11.068;2023-04-24T03:11:27;10.80;99.90
29917;DHT22;16786;49.466;11.068;2023-04-24T03:13:55;10.80;99.90
29917;DHT22;16786;49.466;11.068;2023-04-24T03:16:22;10.80;99.90
29917;DHT22;16786;49.466;11.068;2023-04-24T03:18:49;10.80;99.90
29917;DHT22;16786;49.466;11.068;2023-04-24T03:21:20;10.80;99.90
29917;DHT22;16786;49.466;11.068;2023-04-24T03:23:48;10.80;99.90
29917;DHT22;16786;49.466;11.068;2023-04-24T03:26:15;10.80;99.90
29917;DHT22;16786;49.466;11.068;2023-04-24T03:28:54;10.80;99.90
29917;DHT22;16786;49.466;11.068;2023-04-24T03:31:23;10.80;99.90
29917;DHT22;16786;49.466;11.068;2023-04-24T03:33:52;10.80;99.90
29917;DHT22;16786;49.466;11.068;2023-04-24T03:36:19;10.80;99.90
29917;DHT22;16786;49.466;11.068;2023-04-24T03:38:47;10.80;99.90
29917;DHT22;16786;49.466;11.068;2023-04-24T03:41:34;10.80;99.90
29917;DHT22;16786;49.466;11.068;2023-04-24T03:44:25;10.80;99.90
29917;DHT22;16786;49.466;11.068;2023-04-24T03:46:53;10.80;99.90
29917;DHT22;16786;49.466;11.068;2023-04-24T03:49:24;10.80;99.90
29917;DHT22;16786;49.466;11.068;2023-04-24T03:51:52;10.80;99.90
29917;DHT22;16786;49.466;11.068;2023-04-24T03:54:22;10.80;99.90
29917;DHT22;16786;49.466;11.068;2023-04-24T03:56:51;10.80;99.90
29917;DHT22;16786;49.466;11.068;2023-04-24T03:59:39;10.80;99.90
29917;DHT22;16786;49.466;11.068;2023-04-24T04:02:15;10.80;99.90
29917;DHT22;16786;49.466;11.068;2023-04-24T04:04:42;10.80;99.90
29917;DHT22;16786;49.466;11.068;2023-04-24T04:07:10;10.90;99.90
29917;DHT22;16786;49.466;11.068;2023-04-24T04:09:40;10.90;99.90
29917;DHT22;16786;49.466;11.068;2023-04-24T04:12:08;10.80;99.90
29917;DHT22;16786;49.466;11.068;2023-04-24T04:14:38;10.80;99.90
29917;DHT22;16786;49.466;11.068;2023-04-24T04:17:05;10.80;99.90
29917;DHT22;16786;49.466;11.068;2023-04-24T04:19:32;10.80;99.90
29917;DHT22;16786;49.466;11.068;2023-04-24T04:22:00;10.80;99.90
29917;DHT22;16786;49.466;11.068;2023-04-24T04:24:41;10.80;99.90
29917;DHT22;16786;49.466;11.068;2023-04-24T04:27:10;10.80;99.90
29917;DHT22;16786;49.466;11.068;2023-04-24T04:29:59;10.70;99.90
29917;DHT22;16786;49.466;11.068;2023-04-24T04:32:39;10.80;99.90
29917;DHT22;16786;49.466;11.068;2023-04-24T04:35:07;10.70;99.90
29917;DHT22;16786;49.466;11.068;2023-04-24T04:37:36;10.70;99.90
29917;DHT22;16786;49.466;11.068;2023-04-24T04:40:33;10.80;99.90
29917;DHT22;16786;49.466;11.068;2023-04-24T04:43:05;10.70;99.90
29917;DHT22;16786;49.466;11.068;2023-04-24T04:45:41;10.70;99.90
29917;DHT22;16786;49.466;11.068;2023-04-24T04:48:33;10.80;99.90
29917;DHT22;16786;49.466;11.068;2023-04-24T04:51:02;10.80;99.90
29917;DHT22;16786;49.466;11.068;2023-04-24T04:53:30;10.80;99.90
29917;DHT22;16786;49.466;11.068;2023-04-24T04:55:58;10.80;99.90
29917;DHT22;16786;49.466;11.068;2023-04-24T04:58:33;10.80;99.90
29917;DHT22;16786;49.466;11.068;2023-04-24T05:01:01;10.90;99.90
29917;DHT22;16786;49.466;11.068;2023-04-24T05:03:33;10.90;99.90
29917;DHT22;16786;49.466;11.068;2023-04-24T05:06:07;10.90;99.90
29917;DHT22;16786;49.466;11.068;2023-04-24T05:08:37;10.90;99.90
29917;DHT22;16786;49.466;11.068;2023-04-24T05:11:08;10.90;99.90
29917;DHT22;16786;49.466;11.068;2023-04-24T05:13:37;10.90;99.90
29917;DHT22;16786;49.466;11.068;2023-04-24T05:16:18;10.90;99.90
29917;DHT22;16786;49.466;11.068;2023-04-24T05:18:48;11.00;99.90
29917;DHT22;16786;49.466;11.068;2023-04-24T05:21:22;11.10;99.90
29917;DHT22;16786;49.466;11.068;2023-04-24T05:23:51;11.10;99.90
29917;DHT22;16786;49.466;11.068;2023-04-24T05:26:39;11.10;99.90
29917;DHT22;16786;49.466;11.068;2023-04-24T05:29:07;11.20;99.90
29917;DHT22;16786;49.466;11.068;2023-04-24T05:31:35;11.20;99.90
29917;DHT22;16786;49.466;11.068;2023-04-24T05:34:02;11.20;99.90
29917;DHT22;16786;49.466;11.068;2023-04-24T05:36:30;11.20;99.90
29917;DHT22;16786;49.466;11.068;2023-04-24T05:38:58;11.30;99.90
29917;DHT22;16786;49.466;11.068;2023-04-24T05:41:25;11.30;99.90
29917;DHT22;16786;49.466;11.068;2023-04-24T05:43:54;11.40;99.90
29917;DHT22;16786;49.466;11.068;2023-04-24T05:46:23;11.50;99.90
29917;DHT22;16786;49.466;11.068;2023-04-24T05:48:50;11.60;99.90
29917;DHT22;16786;49.466;11.068;2023-04-24T05:51:18;11.70;99.90
29917;DHT22;16786;49.466;11.068;2023-04-24T05:53:45;11.80;99.90
29917;DHT22;16786;49.466;11.068;2023-04-24T05:56:13;11.80;99.90
29917;DHT22;16786;49.466;11.068;2023-04-24T05:58:41;11.80;99.90
29917;DHT22;16786;49.466;11.068;2023-04-24T06:01:09;11.90;99.90
29917;DHT22;16786;49.466;11.068;2023-04-24T06:03:38;11.90;99.90
29917;DHT22;16786;49.466;11.068;2023-04-24T06:06:07;12.10;99.90
29917;DHT22;16786;49.466;11.068;2023-04-24T06:08:35;12.10;99.90
29917;DHT22;16786;49.466;11.068;2023-04-24T06:11:03;12.10;99.90
29917;DHT22;16786;49.466;11.068;2023-04-24T06:13:32;12.20;99.90
29917;DHT22;16786;49.466;11.068;2023-04-24T06:16:32;12.10;99.90
29917;DHT22;16786;49.466;11.068;2023-04-24T06:19:06;12.00;99.90
29917;DHT22;16786;49.466;11.068;2023-04-24T06:21:33;12.00;99.90
29917;DHT22;16786;49.466;11.068;2023-04-24T06:24:01;11.90;99.90
29917;DHT22;16786;49.466;11.068;2023-04-24T06:26:28;11.90;99.90
29917;DHT22;16786;49.466;11.068;2023-04-24T06:28:55;11.80;99.90
29917;DHT22;16786;49.466;11.068;2023-04-24T06:31:26;11.70;99.90
29917;DHT22;16786;49.466;11.068;2023-04-24T06:33:53;11.70;99.90
29917;DHT22;16786;49.466;11.068;2023-04-24T06:36:21;11.70;99.90
29917;DHT22;16786;49.466;11.068;2023-04-24T06:38:48;11.60;99.90
29917;DHT22;16786;49.466;11.068;2023-04-24T06:41:16;11.50;99.90
29917;DHT22;16786;49.466;11.068;2023-04-24T06:43:43;11.40;99.90
29917;DHT22;16786;49.466;11.068;2023-04-24T06:46:10;11.30;99.90
29917;DHT22;16786;49.466;11.068;2023-04-24T06:48:39;11.20;99.90
29917;DHT22;16786;49.466;11.068;2023-04-24T06:51:07;11.30;99.90
29917;DHT22;16786;49.466;11.068;2023-04-24T06:53:34;11.30;99.90
29917;DHT22;16786;49.466;11.068;2023-04-24T06:56:02;11.30;99.90
29917;DHT22;16786;49.466;11.068;2023-04-24T06:58:30;11.40;99.90
29917;DHT22;16786;49.466;11.068;2023-04-24T07:00:58;11.50;99.90
29917;DHT22;16786;49.466;11.068;2023-04-24T07:03:25;11.50;99.90
29917;DHT22;16786;49.466;11.068;2023-04-24T07:05:53;11.50;99.90
29917;DHT22;16786;49.466;11.068;2023-04-24T07:08:21;11.60;99.90
29917;DHT22;16786;49.466;11.068;2023-04-24T07:10:50;11.60;99.90
29917;DHT22;16786;49.466;11.068;2023-04-24T07:13:19;11.70;99.90
29917;DHT22;16786;49.466;11.068;2023-04-24T07:15:46;11.80;99.90
29917;DHT22;16786;49.466;11.068;2023-04-24T07:18:16;11.90;99.90
29917;DHT22;16786;49.466;11.068;2023-04-24T07:20:44;11.90;99.90
29917;DHT22;16786;49.466;11.068;2023-04-24T07:23:11;12.00;99.90
29917;DHT22;16786;49.466;11.068;2023-04-24T07:25:39;12.00;99.90
29917;DHT22;16786;49.466;11.068;2023-04-24T07:28:07;11.90;99.90
29917;DHT22;16786;49.466;11.068;2023-04-24T07:30:35;11.80;99.90
29917;DHT22;16786;49.466;11.068;2023-04-24T07:33:02;11.90;99.90
29917;DHT22;16786;49.466;11.068;2023-04-24T07:35:30;11.80;99.90
29917;DHT22;16786;49.466;11.068;2023-04-24T07:37:57;11.90;99.90
29917;DHT22;16786;49.466;11.068;2023-04-24T07:40:24;11.70;99.90
29917;DHT22;16786;49.466;11.068;2023-04-24T07:42:52;11.60;99.90
29917;DHT22;16786;49.466;11.068;2023-04-24T07:45:20;11.60;99.90
29917;DHT22;16786;49.466;11.068;2023-04-24T07:47:47;11.70;99.90
29917;DHT22;16786;49.466;11.068;2023-04-24T07:50:15;11.80;99.90
29917;DHT22;16786;49.466;11.068;2023-04-24T07:52:43;11.90;99.90
29917;DHT22;16786;49.466;11.068;2023-04-24T07:55:10;11.80;99.90
29917;DHT22;16786;49.466;11.068;2023-04-24T07:57:38;11.80;99.90
29917;DHT22;16786;49.466;11.068;2023-04-24T08:00:06;11.90;99.90
29917;DHT22;16786;49.466;11.068;2023-04-24T08:02:37;12.10;99.90
29917;DHT22;16786;49.466;11.068;2023-04-24T08:05:06;12.50;99.90
29917;DHT22;16786;49.466;11.068;2023-04-24T08:07:33;12.50;99.90
29917;DHT22;16786;49.466;11.068;2023-04-24T08:10:02;12.60;99.90
29917;DHT22;16786;49.466;11.068;2023-04-24T08:12:30;12.50;99.90
29917;DHT22;16786;49.466;11.068;2023-04-24T08:14:58;12.50;99.90
29917;DHT22;16786;49.466;11.068;2023-04-24T08:17:25;12.40;99.90
29917;DHT22;16786;49.466;11.068;2023-04-24T08:19:53;12.30;99.90
29917;DHT22;16786;49.466;11.068;2023-04-24T08:22:29;12.60;99.90
29917;DHT22;16786;49.466;11.068;2023-04-24T08:24:59;12.70;99.90
29917;DHT22;16786;49.466;11.068;2023-04-24T08:27:27;12.60;99.90
29917;DHT22;16786;49.466;11.068;2023-04-24T08:29:55;12.40;99.90
29917;DHT22;16786;49.466;11.068;2023-04-24T08:32:22;12.40;99.90
29917;DHT22;16786;49.466;11.068;2023-04-24T08:34:49;12.30;99.90
29917;DHT22;16786;49.466;11.068;2023-04-24T08:37:20;12.30;99.90
29917;DHT22;16786;49.466;11.068;2023-04-24T08:39:49;12.40;99.90
29917;DHT22;16786;49.466;11.068;2023-04-24T08:42:20;12.50;99.90
29917;DHT22;16786;49.466;11.068;2023-04-24T08:44:49;12.60;99.90
29917;DHT22;16786;49.466;11.068;2023-04-24T08:47:19;12.60;99.90
29917;DHT22;16786;49.466;11.068;2023-04-24T08:49:48;12.60;99.90
29917;DHT22;16786;49.466;11.068;2023-04-24T08:52:17;12.80;99.90
29917;DHT22;16786;49.466;11.068;2023-04-24T08:54:46;12.90;99.90
29917;DHT22;16786;49.466;11.068;2023-04-24T08:57:14;13.00;99.90
29917;DHT22;16786;49.466;11.068;2023-04-24T08:59:43;13.20;99.90
29917;DHT22;16786;49.466;11.068;2023-04-24T09:02:12;12.80;99.90
29917;DHT22;16786;49.466;11.068;2023-04-24T09:04:40;12.70;99.90
29917;DHT22;16786;49.466;11.068;2023-04-24T09:07:10;12.60;99.90
29917;DHT22;16786;49.466;11.068;2023-04-24T09:09:40;12.80;99.90
29917;DHT22;16786;49.466;11.068;2023-04-24T09:12:09;12.90;99.90
29917;DHT22;16786;49.466;11.068;2023-04-24T09:14:37;13.00;99.90
29917;DHT22;16786;49.466;11.068;2023-04-24T09:17:12;12.90;99.90
29917;DHT22;16786;49.466;11.068;2023-04-24T09:19:42;12.70;99.90
29917;DHT22;16786;49.466;11.068;2023-04-24T09:22:10;12.80;99.90
29917;DHT22;16786;49.466;11.068;2023-04-24T09:24:39;12.90;99.90
29917;DHT22;16786;49.466;11.068;2023-04-24T09:27:07;13.30;99.90
29917;DHT22;16786;49.466;11.068;2023-04-24T09:29:37;13.20;99.90
29917;DHT22;16786;49.466;11.068;2023-04-24T09:32:18;13.20;99.90
29917;DHT22;16786;49.466;11.068;2023-04-24T09:34:49;12.90;99.90
29917;DHT22;16786;49.466;11.068;2023-04-24T09:37:28;12.80;99.90
29917;DHT22;16786;49.466;11.068;2023-04-24T09:40:18;12.70;99.90
29917;DHT22;16786;49.466;11.068;2023-04-24T09:42:55;12.80;99.90
29917;DHT22;16786;49.466;11.068;2023-04-24T09:45:38;12.90;99.90
29917;DHT22;16786;49.466;11.068;2023-04-24T09:48:09;13.20;99.90
29917;DHT22;16786;49.466;11.068;2023-04-24T09:50:38;13.40;99.90
29917;DHT22;16786;49.466;11.068;2023-04-24T09:53:06;13.50;99.90
29917;DHT22;16786;49.466;11.068;2023-04-24T09:55:45;13.70;99.90
29917;DHT22;16786;49.466;11.068;2023-04-24T09:58:15;13.80;99.90
29917;DHT22;16786;49.466;11.068;2023-04-24T10:00:42;13.90;99.90
29917;DHT22;16786;49.466;11.068;2023-04-24T10:03:09;13.90;99.90
29917;DHT22;16786;49.466;11.068;2023-04-24T10:05:38;13.70;99.90
29917;DHT22;16786;49.466;11.068;2023-04-24T10:08:08;13.40;99.90
29917;DHT22;16786;49.466;11.068;2023-04-24T10:10:46;13.40;99.90
29917;DHT22;16786;49.466;11.068;2023-04-24T10:13:15;13.30;99.90
29917;DHT22;16786;49.466;11.068;2023-04-24T10:15:43;13.20;99.90
29917;DHT22;16786;49.466;11.068;2023-04-24T10:18:11;13.40;99.90
29917;DHT22;16786;49.466;11.068;2023-04-24T10:20:40;13.50;99.90
29917;DHT22;16786;49.466;11.068;2023-04-24T10:23:11;13.70;99.90
29917;DHT22;16786;49.466;11.068;2023-04-24T10:25:39;14.20;99.90
29917;DHT22;16786;49.466;11.068;2023-04-24T10:28:07;14.40;99.90
29917;DHT22;16786;49.466;11.068;2023-04-24T10:30:39;14.50;99.90
29917;DHT22;16786;49.466;11.068;2023-04-24T10:33:09;14.60;99.90
29917;DHT22;16786;49.466;11.068;2023-04-24T10:35:41;14.50;99.90
29917;DHT22;16786;49.466;11.068;2023-04-24T10:38:11;14.70;99.90
29917;DHT22;16786;49.466;11.068;2023-04-24T10:40:39;14.80;99.90
29917;DHT22;16786;49.466;11.068;2023-04-24T10:43:09;15.00;99.90
29917;DHT22;16786;49.466;11.068;2023-04-24T10:45:38;14.60;99.90
29917;DHT22;16786;49.466;11.068;2023-04-24T10:48:08;14.00;99.90
29917;DHT22;16786;49.466;11.068;2023-04-24T10:50:45;13.50;99.90
29917;DHT22;16786;49.466;11.068;2023-04-24T10:53:18;13.10;99.90
29917;DHT22;16786;49.466;11.068;2023-04-24T10:58:15;12.60;99.90
29917;DHT22;16786;49.466;11.068;2023-04-24T11:00:54;12.40;99.90
29917;DHT22;16786;49.466;11.068;2023-04-24T11:03:27;12.50;99.90
29917;DHT22;16786;49.466;11.068;2023-04-24T11:06:04;12.20;99.90
29917;DHT22;16786;49.466;11.068;2023-04-24T11:08:38;12.20;99.90
29917;DHT22;16786;49.466;11.068;2023-04-24T11:11:15;12.20;99.90
29917;DHT22;16786;49.466;11.068;2023-04-24T11:21:47;13.10;99.90
29917;DHT22;16786;49.466;11.068;2023-04-24T11:32:18;13.60;99.90
29917;DHT22;16786;49.466;11.068;2023-04-24T11:34:48;13.60;99.90
29917;DHT22;16786;49.466;11.068;2023-04-24T11:37:16;13.70;99.90
29917;DHT22;16786;49.466;11.068;2023-04-24T11:39:44;13.90;99.90
29917;DHT22;16786;49.466;11.068;2023-04-24T11:42:14;13.90;99.90
29917;DHT22;16786;49.466;11.068;2023-04-24T11:44:43;13.90;99.90
29917;DHT22;16786;49.466;11.068;2023-04-24T11:47:11;13.90;99.90
29917;DHT22;16786;49.466;11.068;2023-04-24T11:49:39;13.70;99.90
29917;DHT22;16786;49.466;11.068;2023-04-24T11:52:07;13.60;99.90
29917;DHT22;16786;49.466;11.068;2023-04-24T11:54:34;13.50;99.90
29917;DHT22;16786;49.466;11.068;2023-04-24T11:57:04;13.30;99.90
29917;DHT22;16786;49.466;11.068;2023-04-24T11:59:36;13.10;99.90
29917;DHT22;16786;49.466;11.068;2023-04-24T12:02:05;13.10;99.90
29917;DHT22;16786;49.466;11.068;2023-04-24T12:04:40;13.40;99.90
29917;DHT22;16786;49.466;11.068;2023-04-24T12:07:09;13.70;99.90
29917;DHT22;16786;49.466;11.068;2023-04-24T12:09:56;13.50;99.90
29917;DHT22;16786;49.466;11.068;2023-04-24T12:12:26;13.50;99.90
29917;DHT22;16786;49.466;11.068;2023-04-24T12:14:56;13.70;99.90
29917;DHT22;16786;49.466;11.068;2023-04-24T12:20:00;13.90;99.90
29917;DHT22;16786;49.466;11.068;2023-04-24T12:22:42;14.10;99.90
29917;DHT22;16786;49.466;11.068;2023-04-24T12:25:11;14.30;99.90
29917;DHT22;16786;49.466;11.068;2023-04-24T12:27:38;14.20;99.90
29917;DHT22;16786;49.466;11.068;2023-04-24T12:30:11;14.30;99.90
29917;DHT22;16786;49.466;11.068;2023-04-24T12:32:46;13.90;99.90
29917;DHT22;16786;49.466;11.068;2023-04-24T12:35:20;14.10;99.90
29917;DHT22;16786;49.466;11.068;2023-04-24T12:37:48;14.00;99.90
29917;DHT22;16786;49.466;11.068;2023-04-24T12:40:17;14.40;99.90
29917;DHT22;16786;49.466;11.068;2023-04-24T12:42:50;14.50;99.90
29917;DHT22;16786;49.466;11.068;2023-04-24T12:45:18;14.30;99.90
29917;DHT22;16786;49.466;11.068;2023-04-24T12:47:46;14.20;99.90
29917;DHT22;16786;49.466;11.068;2023-04-24T12:50:15;14.40;99.90
29917;DHT22;16786;49.466;11.068;2023-04-24T12:52:44;14.30;99.90
29917;DHT22;16786;49.466;11.068;2023-04-24T12:55:12;14.30;99.90
29917;DHT22;16786;49.466;11.068;2023-04-24T12:57:40;14.20;99.90
29917;DHT22;16786;49.466;11.068;2023-04-24T13:00:08;13.80;99.90
29917;DHT22;16786;49.466;11.068;2023-04-24T13:02:38;13.80;99.90
29917;DHT22;16786;49.466;11.068;2023-04-24T13:05:06;14.00;99.90
29917;DHT22;16786;49.466;11.068;2023-04-24T13:07:38;14.20;99.90
29917;DHT22;16786;49.466;11.068;2023-04-24T13:10:07;14.60;99.90
29917;DHT22;16786;49.466;11.068;2023-04-24T13:12:35;15.00;99.90
29917;DHT22;16786;49.466;11.068;2023-04-24T13:15:02;15.80;99.90
29917;DHT22;16786;49.466;11.068;2023-04-24T13:17:30;16.10;99.90
29917;DHT22;16786;49.466;11.068;2023-04-24T13:19:58;15.90;99.90
29917;DHT22;16786;49.466;11.068;2023-04-24T13:22:25;15.00;99.90
29917;DHT22;16786;49.466;11.068;2023-04-24T13:24:53;14.10;99.90
29917;DHT22;16786;49.466;11.068;2023-04-24T13:27:20;13.50;99.90
29917;DHT22;16786;49.466;11.068;2023-04-24T13:29:47;13.30;99.90
29917;DHT22;16786;49.466;11.068;2023-04-24T13:32:15;13.10;99.90
29917;DHT22;16786;49.466;11.068;2023-04-24T13:34:42;13.10;99.90
29917;DHT22;16786;49.466;11.068;2023-04-24T13:37:10;13.30;99.90
29917;DHT22;16786;49.466;11.068;2023-04-24T13:39:38;13.30;99.90
29917;DHT22;16786;49.466;11.068;2023-04-24T13:42:05;13.30;99.90
29917;DHT22;16786;49.466;11.068;2023-04-24T13:44:32;13.70;99.90
29917;DHT22;16786;49.466;11.068;2023-04-24T13:47:00;13.80;99.90
29917;DHT22;16786;49.466;11.068;2023-04-24T13:49:28;13.60;99.90
29917;DHT22;16786;49.466;11.068;2023-04-24T13:51:56;13.50;99.90
29917;DHT22;16786;49.466;11.068;2023-04-24T13:54:24;12.80;99.90
29917;DHT22;16786;49.466;11.068;2023-04-24T13:56:57;12.80;99.90
29917;DHT22;16786;49.466;11.068;2023-04-24T13:59:24;12.70;99.90
29917;DHT22;16786;49.466;11.068;2023-04-24T14:01:52;12.90;99.90
29917;DHT22;16786;49.466;11.068;2023-04-24T14:04:21;13.00;99.90
29917;DHT22;16786;49.466;11.068;2023-04-24T14:06:50;13.20;99.90
29917;DHT22;16786;49.466;11.068;2023-04-24T14:09:18;13.20;99.90
29917;DHT22;16786;49.466;11.068;2023-04-24T14:11:45;14.40;99.90
29917;DHT22;16786;49.466;11.068;2023-04-24T14:14:13;16.40;99.90
29917;DHT22;16786;49.466;11.068;2023-04-24T14:16:41;17.70;99.90
29917;DHT22;16786;49.466;11.068;2023-04-24T14:19:09;19.50;99.90
29917;DHT22;16786;49.466;11.068;2023-04-24T14:21:37;18.70;99.90
29917;DHT22;16786;49.466;11.068;2023-04-24T14:24:09;17.60;99.90
29917;DHT22;16786;49.466;11.068;2023-04-24T14:26:37;17.30;99.90
29917;DHT22;16786;49.466;11.068;2023-04-24T14:29:04;17.30;99.90
29917;DHT22;16786;49.466;11.068;2023-04-24T14:31:42;16.90;99.90
29917;DHT22;16786;49.466;11.068;2023-04-24T14:34:10;16.30;99.90
29917;DHT22;16786;49.466;11.068;2023-04-24T14:36:37;17.10;99.90
29917;DHT22;16786;49.466;11.068;2023-04-24T14:39:04;18.10;99.90
29917;DHT22;16786;49.466;11.068;2023-04-24T14:41:34;16.80;99.90
29917;DHT22;16786;49.466;11.068;2023-04-24T14:44:04;15.60;99.90
29917;DHT22;16786;49.466;11.068;2023-04-24T14:46:34;15.10;99.90
29917;DHT22;16786;49.466;11.068;2023-04-24T14:49:02;14.70;99.90
29917;DHT22;16786;49.466;11.068;2023-04-24T14:51:30;16.50;99.90
29917;DHT22;16786;49.466;11.068;2023-04-24T14:53:58;17.10;99.90
29917;DHT22;16786;49.466;11.068;2023-04-24T14:56:26;16.90;99.90
29917;DHT22;16786;49.466;11.068;2023-04-24T14:58:53;17.10;99.90
29917;DHT22;16786;49.466;11.068;2023-04-24T15:01:21;18.60;99.90
29917;DHT22;16786;49.466;11.068;2023-04-24T15:03:48;20.00;99.90
29917;DHT22;16786;49.466;11.068;2023-04-24T15:06:16;21.00;99.90
29917;DHT22;16786;49.466;11.068;2023-04-24T15:08:44;21.90;99.90
29917;DHT22;16786;49.466;11.068;2023-04-24T15:11:15;22.10;99.50
29917;DHT22;16786;49.466;11.068;2023-04-24T15:13:43;21.40;98.00
29917;DHT22;16786;49.466;11.068;2023-04-24T15:16:12;22.10;97.10
29917;DHT22;16786;49.466;11.068;2023-04-24T15:18:40;22.00;96.20
29917;DHT22;16786;49.466;11.068;2023-04-24T15:21:09;22.60;95.70
29917;DHT22;16786;49.466;11.068;2023-04-24T15:23:36;22.00;95.60
29917;DHT22;16786;49.466;11.068;2023-04-24T15:26:05;20.90;96.50
29917;DHT22;16786;49.466;11.068;2023-04-24T15:28:33;20.20;98.10
29917;DHT22;16786;49.466;11.068;2023-04-24T15:31:00;20.50;98.20
29917;DHT22;16786;49.466;11.068;2023-04-24T15:33:28;19.50;98.20
29917;DHT22;16786;49.466;11.068;2023-04-24T15:35:55;18.00;99.90
29917;DHT22;16786;49.466;11.068;2023-04-24T15:38:22;17.00;99.90
29917;DHT22;16786;49.466;11.068;2023-04-24T15:40:50;16.50;99.90
29917;DHT22;16786;49.466;11.068;2023-04-24T15:43:17;16.00;99.90
29917;DHT22;16786;49.466;11.068;2023-04-24T15:45:44;15.60;99.90
29917;DHT22;16786;49.466;11.068;2023-04-24T15:48:12;14.70;99.90
29917;DHT22;16786;49.466;11.068;2023-04-24T15:50:39;14.10;99.90